sensor_id;sensor_type;location;lat;lon;timestamp;P1;durP1;ratioP1;P2;durP2;ratioP2
31182;SDS011;17813;0.000;0.000;2022-12-18T00:01:33;35.80;;;19.63;;
31182;SDS011;17813;0.000;0.000;2022-12-18T00:04:03;32.23;;;18.70;;
31182;SDS011;17813;0.000;0.000;2022-12-18T00:06:31;33.67;;;19.53;;
31182;SDS011;17813;0.000;0.000;2022-12-18T00:09:01;30.63;;;18.93;;
31182;SDS011;17813;0.000;0.000;2022-12-18T00:11:29;35.03;;;18.10;;
31182;SDS011;17813;0.000;0.000;2022-12-18T00:13:58;31.67;;;19.03;;
31182;SDS011;17813;0.000;0.000;2022-12-18T00:16:26;31.30;;;17.23;;
31182;SDS011;17813;0.000;0.000;2022-12-18T00:18:55;28.97;;;17.27;;
31182;SDS011;17813;0.000;0.000;2022-12-18T00:21:22;34.53;;;18.53;;
31182;SDS011;17813;0.000;0.000;2022-12-18T00:24:08;34.83;;;19.37;;
31182;SDS011;17813;0.000;0.000;2022-12-18T00:26:36;32.93;;;19.80;;
31182;SDS011;17813;0.000;0.000;2022-12-18T00:29:07;33.53;;;19.30;;
31182;SDS011;17813;0.000;0.000;2022-12-18T00:31:42;31.33;;;18.80;;
31182;SDS011;17813;0.000;0.000;2022-12-18T00:34:11;32.00;;;18.03;;
31182;SDS011;17813;0.000;0.000;2022-12-18T00:36:40;31.97;;;18.23;;
31182;SDS011;17813;0.000;0.000;2022-12-18T00:39:07;32.73;;;19.90;;
31182;SDS011;17813;0.000;0.000;2022-12-18T00:41:36;34.80;;;19.70;;
31182;SDS011;17813;0.000;0.000;2022-12-18T00:44:22;35.30;;;19.30;;
31182;SDS011;17813;0.000;0.000;2022-12-18T00:46:49;33.67;;;18.07;;
31182;SDS011;17813;0.000;0.000;2022-12-18T00:49:31;28.20;;;17.20;;
31182;SDS011;17813;0.000;0.000;2022-12-18T00:52:16;34.50;;;19.30;;
31182;SDS011;17813;0.000;0.000;2022-12-18T00:54:58;32.47;;;18.90;;
31182;SDS011;17813;0.000;0.000;2022-12-18T00:57:25;33.63;;;18.40;;
31182;SDS011;17813;0.000;0.000;2022-12-18T00:59:53;29.70;;;18.03;;
31182;SDS011;17813;0.000;0.000;2022-12-18T01:02:19;41.97;;;27.13;;
31182;SDS011;17813;0.000;0.000;2022-12-18T01:04:46;28.97;;;17.83;;
31182;SDS011;17813;0.000;0.000;2022-12-18T01:07:19;32.30;;;18.23;;
31182;SDS011;17813;0.000;0.000;2022-12-18T01:09:47;29.57;;;18.93;;
31182;SDS011;17813;0.000;0.000;2022-12-18T01:12:13;31.33;;;17.97;;
31182;SDS011;17813;0.000;0.000;2022-12-18T01:14:41;33.30;;;18.30;;
31182;SDS011;17813;0.000;0.000;2022-12-18T01:17:08;35.53;;;17.57;;
31182;SDS011;17813;0.000;0.000;2022-12-18T01:19:35;33.33;;;17.63;;
31182;SDS011;17813;0.000;0.000;2022-12-18T01:22:02;33.93;;;17.33;;
31182;SDS011;17813;0.000;0.000;2022-12-18T01:24:30;37.33;;;17.30;;
31182;SDS011;17813;0.000;0.000;2022-12-18T01:26:56;31.90;;;18.07;;
31182;SDS011;17813;0.000;0.000;2022-12-18T01:29:23;28.07;;;16.67;;
31182;SDS011;17813;0.000;0.000;2022-12-18T01:31:51;29.07;;;17.37;;
31182;SDS011;17813;0.000;0.000;2022-12-18T01:34:20;31.10;;;16.70;;
31182;SDS011;17813;0.000;0.000;2022-12-18T01:36:47;28.60;;;15.97;;
31182;SDS011;17813;0.000;0.000;2022-12-18T01:39:15;30.77;;;16.30;;
31182;SDS011;17813;0.000;0.000;2022-12-18T01:41:42;28.10;;;15.90;;
31182;SDS011;17813;0.000;0.000;2022-12-18T01:50:13;27.47;;;15.83;;
31182;SDS011;17813;0.000;0.000;2022-12-18T01:52:50;28.20;;;15.50;;
31182;SDS011;17813;0.000;0.000;2022-12-18T01:55:28;27.30;;;15.77;;
31182;SDS011;17813;0.000;0.000;2022-12-18T01:57:58;29.83;;;15.90;;
31182;SDS011;17813;0.000;0.000;2022-12-18T02:00:29;25.30;;;15.73;;
31182;SDS011;17813;0.000;0.000;2022-12-18T02:02:59;28.60;;;16.33;;
31182;SDS011;17813;0.000;0.000;2022-12-18T02:08:27;26.93;;;15.23;;
31182;SDS011;17813;0.000;0.000;2022-12-18T02:11:17;24.70;;;15.73;;
31182;SDS011;17813;0.000;0.000;2022-12-18T02:14:16;26.63;;;15.77;;
31182;SDS011;17813;0.000;0.000;2022-12-18T02:17:19;29.53;;;16.13;;
31182;SDS011;17813;0.000;0.000;2022-12-18T02:25:26;27.50;;;16.70;;
31182;SDS011;17813;0.000;0.000;2022-12-18T02:28:03;25.77;;;16.50;;
31182;SDS011;17813;0.000;0.000;2022-12-18T02:30:46;24.03;;;15.10;;
31182;SDS011;17813;0.000;0.000;2022-12-18T02:33:16;29.23;;;15.63;;
31182;SDS011;17813;0.000;0.000;2022-12-18T02:35:45;26.77;;;15.63;;
31182;SDS011;17813;0.000;0.000;2022-12-18T02:38:14;26.37;;;15.03;;
31182;SDS011;17813;0.000;0.000;2022-12-18T02:40:43;26.50;;;15.20;;
31182;SDS011;17813;0.000;0.000;2022-12-18T02:43:13;28.23;;;15.13;;
31182;SDS011;17813;0.000;0.000;2022-12-18T02:45:48;26.40;;;14.50;;
31182;SDS011;17813;0.000;0.000;2022-12-18T02:48:21;26.00;;;14.00;;
31182;SDS011;17813;0.000;0.000;2022-12-18T02:56:20;28.30;;;14.20;;
31182;SDS011;17813;0.000;0.000;2022-12-18T02:59:09;22.57;;;13.33;;
31182;SDS011;17813;0.000;0.000;2022-12-18T03:04:25;22.87;;;13.77;;
31182;SDS011;17813;0.000;0.000;2022-12-18T03:07:05;23.07;;;14.37;;
31182;SDS011;17813;0.000;0.000;2022-12-18T03:09:42;22.50;;;13.83;;
31182;SDS011;17813;0.000;0.000;2022-12-18T03:12:18;25.67;;;13.67;;
31182;SDS011;17813;0.000;0.000;2022-12-18T03:15:51;23.67;;;13.63;;
31182;SDS011;17813;0.000;0.000;2022-12-18T03:17:59;22.33;;;13.60;;
31182;SDS011;17813;0.000;0.000;2022-12-18T03:20:42;24.70;;;13.60;;
31182;SDS011;17813;0.000;0.000;2022-12-18T03:23:17;26.30;;;14.83;;
31182;SDS011;17813;0.000;0.000;2022-12-18T03:25:54;22.03;;;12.80;;
31182;SDS011;17813;0.000;0.000;2022-12-18T03:28:33;23.03;;;13.40;;
31182;SDS011;17813;0.000;0.000;2022-12-18T03:31:04;26.40;;;14.70;;
31182;SDS011;17813;0.000;0.000;2022-12-18T03:34:12;25.23;;;14.33;;
31182;SDS011;17813;0.000;0.000;2022-12-18T03:36:52;24.50;;;13.43;;
31182;SDS011;17813;0.000;0.000;2022-12-18T03:39:23;22.73;;;13.83;;
31182;SDS011;17813;0.000;0.000;2022-12-18T03:41:52;22.97;;;13.80;;
31182;SDS011;17813;0.000;0.000;2022-12-18T03:50:06;22.83;;;13.93;;
31182;SDS011;17813;0.000;0.000;2022-12-18T03:52:50;24.10;;;13.83;;
31182;SDS011;17813;0.000;0.000;2022-12-18T03:55:22;23.23;;;13.83;;
31182;SDS011;17813;0.000;0.000;2022-12-18T03:58:00;24.60;;;12.97;;
31182;SDS011;17813;0.000;0.000;2022-12-18T04:00:33;22.10;;;13.27;;
31182;SDS011;17813;0.000;0.000;2022-12-18T04:03:01;20.87;;;12.67;;
31182;SDS011;17813;0.000;0.000;2022-12-18T04:05:31;20.93;;;12.60;;
31182;SDS011;17813;0.000;0.000;2022-12-18T04:08:02;19.27;;;12.73;;
31182;SDS011;17813;0.000;0.000;2022-12-18T04:10:36;19.77;;;11.83;;
31182;SDS011;17813;0.000;0.000;2022-12-18T04:13:03;21.87;;;12.10;;
31182;SDS011;17813;0.000;0.000;2022-12-18T04:15:33;23.30;;;13.13;;
31182;SDS011;17813;0.000;0.000;2022-12-18T04:18:04;20.80;;;12.40;;
31182;SDS011;17813;0.000;0.000;2022-12-18T04:20:32;21.37;;;12.57;;
31182;SDS011;17813;0.000;0.000;2022-12-18T04:22:59;20.07;;;12.10;;
31182;SDS011;17813;0.000;0.000;2022-12-18T04:25:30;22.27;;;12.83;;
31182;SDS011;17813;0.000;0.000;2022-12-18T04:28:16;21.40;;;13.10;;
31182;SDS011;17813;0.000;0.000;2022-12-18T04:30:43;19.80;;;11.63;;
31182;SDS011;17813;0.000;0.000;2022-12-18T04:33:10;21.97;;;12.90;;
31182;SDS011;17813;0.000;0.000;2022-12-18T04:35:54;17.77;;;11.30;;
31182;SDS011;17813;0.000;0.000;2022-12-18T04:38:21;15.47;;;10.47;;
31182;SDS011;17813;0.000;0.000;2022-12-18T04:40:48;18.90;;;10.97;;
31182;SDS011;17813;0.000;0.000;2022-12-18T04:43:15;17.40;;;10.43;;
31182;SDS011;17813;0.000;0.000;2022-12-18T04:45:43;23.40;;;12.67;;
31182;SDS011;17813;0.000;0.000;2022-12-18T04:48:11;19.20;;;11.50;;
31182;SDS011;17813;0.000;0.000;2022-12-18T04:50:39;21.10;;;12.30;;
31182;SDS011;17813;0.000;0.000;2022-12-18T04:53:09;20.43;;;10.77;;
31182;SDS011;17813;0.000;0.000;2022-12-18T04:55:36;19.73;;;11.50;;
31182;SDS011;17813;0.000;0.000;2022-12-18T04:58:03;19.53;;;11.17;;
31182;SDS011;17813;0.000;0.000;2022-12-18T05:00:33;19.17;;;11.50;;
31182;SDS011;17813;0.000;0.000;2022-12-18T05:03:12;21.10;;;11.80;;
31182;SDS011;17813;0.000;0.000;2022-12-18T05:05:51;21.03;;;12.03;;
31182;SDS011;17813;0.000;0.000;2022-12-18T05:08:18;20.63;;;11.70;;
31182;SDS011;17813;0.000;0.000;2022-12-18T05:10:49;24.67;;;12.07;;
31182;SDS011;17813;0.000;0.000;2022-12-18T05:13:24;18.50;;;11.23;;
31182;SDS011;17813;0.000;0.000;2022-12-18T05:15:52;20.60;;;12.20;;
31182;SDS011;17813;0.000;0.000;2022-12-18T05:18:37;18.73;;;11.23;;
31182;SDS011;17813;0.000;0.000;2022-12-18T05:21:05;18.27;;;11.03;;
31182;SDS011;17813;0.000;0.000;2022-12-18T05:23:32;16.83;;;11.10;;
31182;SDS011;17813;0.000;0.000;2022-12-18T05:26:00;19.97;;;12.00;;
31182;SDS011;17813;0.000;0.000;2022-12-18T05:28:30;17.97;;;12.17;;
31182;SDS011;17813;0.000;0.000;2022-12-18T05:31:01;18.00;;;11.50;;
31182;SDS011;17813;0.000;0.000;2022-12-18T05:33:31;17.73;;;11.27;;
31182;SDS011;17813;0.000;0.000;2022-12-18T05:36:02;20.23;;;11.63;;
31182;SDS011;17813;0.000;0.000;2022-12-18T05:38:32;16.87;;;11.27;;
31182;SDS011;17813;0.000;0.000;2022-12-18T05:41:01;19.87;;;11.80;;
31182;SDS011;17813;0.000;0.000;2022-12-18T05:43:29;19.23;;;11.10;;
31182;SDS011;17813;0.000;0.000;2022-12-18T05:45:56;19.47;;;10.40;;
31182;SDS011;17813;0.000;0.000;2022-12-18T05:48:25;17.67;;;10.57;;
31182;SDS011;17813;0.000;0.000;2022-12-18T05:51:02;19.00;;;10.87;;
31182;SDS011;17813;0.000;0.000;2022-12-18T05:53:41;17.17;;;11.00;;
31182;SDS011;17813;0.000;0.000;2022-12-18T05:56:18;19.93;;;10.93;;
31182;SDS011;17813;0.000;0.000;2022-12-18T05:58:47;18.10;;;10.63;;
31182;SDS011;17813;0.000;0.000;2022-12-18T06:01:20;17.50;;;11.23;;
31182;SDS011;17813;0.000;0.000;2022-12-18T06:03:53;17.47;;;11.07;;
31182;SDS011;17813;0.000;0.000;2022-12-18T06:06:27;21.00;;;11.17;;
31182;SDS011;17813;0.000;0.000;2022-12-18T06:08:55;17.70;;;11.23;;
31182;SDS011;17813;0.000;0.000;2022-12-18T06:11:23;17.53;;;11.20;;
31182;SDS011;17813;0.000;0.000;2022-12-18T06:13:53;18.53;;;11.47;;
31182;SDS011;17813;0.000;0.000;2022-12-18T06:16:20;20.10;;;11.80;;
31182;SDS011;17813;0.000;0.000;2022-12-18T06:18:47;20.73;;;11.50;;
31182;SDS011;17813;0.000;0.000;2022-12-18T06:21:19;17.97;;;10.37;;
31182;SDS011;17813;0.000;0.000;2022-12-18T06:23:45;20.13;;;11.03;;
31182;SDS011;17813;0.000;0.000;2022-12-18T06:26:13;20.47;;;11.17;;
31182;SDS011;17813;0.000;0.000;2022-12-18T06:28:40;20.50;;;11.27;;
31182;SDS011;17813;0.000;0.000;2022-12-18T06:31:07;18.67;;;10.73;;
31182;SDS011;17813;0.000;0.000;2022-12-18T06:33:35;19.17;;;11.03;;
31182;SDS011;17813;0.000;0.000;2022-12-18T06:36:04;23.43;;;11.43;;
31182;SDS011;17813;0.000;0.000;2022-12-18T06:38:38;20.77;;;11.37;;
31182;SDS011;17813;0.000;0.000;2022-12-18T06:41:07;20.00;;;11.27;;
31182;SDS011;17813;0.000;0.000;2022-12-18T06:43:38;16.77;;;11.17;;
31182;SDS011;17813;0.000;0.000;2022-12-18T06:46:24;19.13;;;11.37;;
31182;SDS011;17813;0.000;0.000;2022-12-18T06:48:50;21.57;;;10.93;;
31182;SDS011;17813;0.000;0.000;2022-12-18T06:51:23;17.07;;;11.07;;
31182;SDS011;17813;0.000;0.000;2022-12-18T06:53:50;20.67;;;10.77;;
31182;SDS011;17813;0.000;0.000;2022-12-18T06:56:18;18.77;;;11.27;;
31182;SDS011;17813;0.000;0.000;2022-12-18T06:58:45;20.30;;;11.10;;
31182;SDS011;17813;0.000;0.000;2022-12-18T07:01:12;21.00;;;11.70;;
31182;SDS011;17813;0.000;0.000;2022-12-18T07:03:42;15.73;;;10.30;;
31182;SDS011;17813;0.000;0.000;2022-12-18T07:06:16;18.40;;;10.63;;
31182;SDS011;17813;0.000;0.000;2022-12-18T07:08:45;22.30;;;11.27;;
31182;SDS011;17813;0.000;0.000;2022-12-18T07:11:17;22.80;;;12.30;;
31182;SDS011;17813;0.000;0.000;2022-12-18T07:13:45;20.57;;;11.90;;
31182;SDS011;17813;0.000;0.000;2022-12-18T07:16:15;24.57;;;13.33;;
31182;SDS011;17813;0.000;0.000;2022-12-18T07:18:46;23.70;;;12.90;;
31182;SDS011;17813;0.000;0.000;2022-12-18T07:21:15;18.10;;;10.80;;
31182;SDS011;17813;0.000;0.000;2022-12-18T07:23:44;20.80;;;11.87;;
31182;SDS011;17813;0.000;0.000;2022-12-18T07:26:14;20.60;;;10.93;;
31182;SDS011;17813;0.000;0.000;2022-12-18T07:28:44;20.57;;;11.73;;
31182;SDS011;17813;0.000;0.000;2022-12-18T07:31:23;23.13;;;11.30;;
31182;SDS011;17813;0.000;0.000;2022-12-18T07:34:17;17.63;;;10.53;;
31182;SDS011;17813;0.000;0.000;2022-12-18T07:36:56;22.07;;;11.43;;
31182;SDS011;17813;0.000;0.000;2022-12-18T07:39:35;22.30;;;11.07;;
31182;SDS011;17813;0.000;0.000;2022-12-18T07:42:33;26.73;;;12.87;;
31182;SDS011;17813;0.000;0.000;2022-12-18T07:45:10;20.57;;;12.00;;
31182;SDS011;17813;0.000;0.000;2022-12-18T07:47:38;19.90;;;11.70;;
31182;SDS011;17813;0.000;0.000;2022-12-18T07:50:31;20.17;;;11.80;;
31182;SDS011;17813;0.000;0.000;2022-12-18T07:52:58;23.57;;;11.83;;
31182;SDS011;17813;0.000;0.000;2022-12-18T07:55:33;20.80;;;11.07;;
31182;SDS011;17813;0.000;0.000;2022-12-18T07:58:08;19.23;;;11.47;;
31182;SDS011;17813;0.000;0.000;2022-12-18T08:00:36;22.57;;;11.77;;
31182;SDS011;17813;0.000;0.000;2022-12-18T08:03:03;22.50;;;12.30;;
31182;SDS011;17813;0.000;0.000;2022-12-18T08:05:30;24.80;;;13.37;;
31182;SDS011;17813;0.000;0.000;2022-12-18T08:07:57;27.23;;;13.07;;
31182;SDS011;17813;0.000;0.000;2022-12-18T08:10:24;19.07;;;12.23;;
31182;SDS011;17813;0.000;0.000;2022-12-18T08:12:51;23.50;;;13.37;;
31182;SDS011;17813;0.000;0.000;2022-12-18T08:15:20;23.60;;;14.07;;
31182;SDS011;17813;0.000;0.000;2022-12-18T08:17:47;26.30;;;15.57;;
31182;SDS011;17813;0.000;0.000;2022-12-18T08:20:14;21.57;;;14.20;;
31182;SDS011;17813;0.000;0.000;2022-12-18T08:22:42;23.70;;;13.57;;
31182;SDS011;17813;0.000;0.000;2022-12-18T08:25:10;26.47;;;14.57;;
31182;SDS011;17813;0.000;0.000;2022-12-18T08:27:38;27.93;;;15.80;;
31182;SDS011;17813;0.000;0.000;2022-12-18T08:30:05;23.23;;;14.93;;
31182;SDS011;17813;0.000;0.000;2022-12-18T08:32:33;23.10;;;15.13;;
31182;SDS011;17813;0.000;0.000;2022-12-18T08:35:01;21.57;;;14.63;;
31182;SDS011;17813;0.000;0.000;2022-12-18T08:37:55;18.80;;;13.40;;
31182;SDS011;17813;0.000;0.000;2022-12-18T08:40:22;22.77;;;13.80;;
31182;SDS011;17813;0.000;0.000;2022-12-18T08:42:49;19.73;;;13.27;;
31182;SDS011;17813;0.000;0.000;2022-12-18T08:45:36;22.40;;;13.83;;
31182;SDS011;17813;0.000;0.000;2022-12-18T08:48:03;19.77;;;13.47;;
31182;SDS011;17813;0.000;0.000;2022-12-18T08:50:30;16.73;;;12.97;;
31182;SDS011;17813;0.000;0.000;2022-12-18T08:52:59;17.70;;;13.37;;
31182;SDS011;17813;0.000;0.000;2022-12-18T08:55:28;20.93;;;13.80;;
31182;SDS011;17813;0.000;0.000;2022-12-18T08:58:02;17.10;;;12.77;;
31182;SDS011;17813;0.000;0.000;2022-12-18T09:00:29;18.57;;;13.23;;
31182;SDS011;17813;0.000;0.000;2022-12-18T09:02:58;17.37;;;12.67;;
31182;SDS011;17813;0.000;0.000;2022-12-18T09:05:25;17.93;;;13.90;;
31182;SDS011;17813;0.000;0.000;2022-12-18T09:07:57;20.20;;;14.07;;
31182;SDS011;17813;0.000;0.000;2022-12-18T09:10:30;17.20;;;12.80;;
31182;SDS011;17813;0.000;0.000;2022-12-18T09:13:00;19.67;;;14.17;;
31182;SDS011;17813;0.000;0.000;2022-12-18T09:15:41;18.27;;;14.07;;
31182;SDS011;17813;0.000;0.000;2022-12-18T09:18:16;16.40;;;12.43;;
31182;SDS011;17813;0.000;0.000;2022-12-18T09:20:44;19.20;;;13.43;;
31182;SDS011;17813;0.000;0.000;2022-12-18T09:23:15;16.03;;;12.57;;
31182;SDS011;17813;0.000;0.000;2022-12-18T09:25:42;16.07;;;12.67;;
31182;SDS011;17813;0.000;0.000;2022-12-18T09:28:10;15.50;;;12.57;;
31182;SDS011;17813;0.000;0.000;2022-12-18T09:30:43;16.27;;;12.87;;
31182;SDS011;17813;0.000;0.000;2022-12-18T09:33:12;15.80;;;12.20;;
31182;SDS011;17813;0.000;0.000;2022-12-18T09:35:40;14.90;;;12.60;;
31182;SDS011;17813;0.000;0.000;2022-12-18T09:38:09;15.93;;;12.20;;
31182;SDS011;17813;0.000;0.000;2022-12-18T09:40:43;16.50;;;13.00;;
31182;SDS011;17813;0.000;0.000;2022-12-18T09:43:24;13.93;;;12.07;;
31182;SDS011;17813;0.000;0.000;2022-12-18T09:46:04;15.73;;;12.83;;
31182;SDS011;17813;0.000;0.000;2022-12-18T09:48:35;16.13;;;12.57;;
31182;SDS011;17813;0.000;0.000;2022-12-18T09:51:50;14.40;;;12.70;;
31182;SDS011;17813;0.000;0.000;2022-12-18T09:54:05;14.63;;;12.50;;
31182;SDS011;17813;0.000;0.000;2022-12-18T09:56:41;14.97;;;12.77;;
31182;SDS011;17813;0.000;0.000;2022-12-18T09:59:42;16.07;;;13.63;;
31182;SDS011;17813;0.000;0.000;2022-12-18T10:02:17;15.43;;;12.63;;
31182;SDS011;17813;0.000;0.000;2022-12-18T10:08:09;18.50;;;13.70;;
31182;SDS011;17813;0.000;0.000;2022-12-18T10:10:43;18.27;;;13.23;;
31182;SDS011;17813;0.000;0.000;2022-12-18T10:15:58;16.57;;;13.60;;
31182;SDS011;17813;0.000;0.000;2022-12-18T10:28:10;16.07;;;13.77;;
31182;SDS011;17813;0.000;0.000;2022-12-18T10:30:40;16.67;;;13.40;;
31182;SDS011;17813;0.000;0.000;2022-12-18T10:33:22;15.53;;;13.07;;
31182;SDS011;17813;0.000;0.000;2022-12-18T10:36:05;15.77;;;13.73;;
31182;SDS011;17813;0.000;0.000;2022-12-18T10:38:32;17.33;;;13.97;;
31182;SDS011;17813;0.000;0.000;2022-12-18T10:41:41;16.60;;;14.13;;
31182;SDS011;17813;0.000;0.000;2022-12-18T10:44:12;16.93;;;13.33;;
31182;SDS011;17813;0.000;0.000;2022-12-18T10:46:46;15.50;;;13.67;;
31182;SDS011;17813;0.000;0.000;2022-12-18T10:49:22;17.40;;;14.53;;
31182;SDS011;17813;0.000;0.000;2022-12-18T10:52:14;19.30;;;14.53;;
31182;SDS011;17813;0.000;0.000;2022-12-18T10:54:51;18.40;;;14.37;;
31182;SDS011;17813;0.000;0.000;2022-12-18T10:57:36;16.60;;;13.27;;
31182;SDS011;17813;0.000;0.000;2022-12-18T11:02:53;18.60;;;15.60;;
31182;SDS011;17813;0.000;0.000;2022-12-18T11:05:31;19.13;;;15.63;;
31182;SDS011;17813;0.000;0.000;2022-12-18T11:08:00;18.10;;;13.60;;
31182;SDS011;17813;0.000;0.000;2022-12-18T11:10:32;16.03;;;13.77;;
31182;SDS011;17813;0.000;0.000;2022-12-18T11:13:21;16.63;;;13.20;;
31182;SDS011;17813;0.000;0.000;2022-12-18T11:15:50;15.37;;;13.17;;
31182;SDS011;17813;0.000;0.000;2022-12-18T11:18:36;14.93;;;12.40;;
31182;SDS011;17813;0.000;0.000;2022-12-18T11:21:08;15.37;;;12.47;;
31182;SDS011;17813;0.000;0.000;2022-12-18T11:23:37;15.00;;;12.57;;
31182;SDS011;17813;0.000;0.000;2022-12-18T11:26:15;14.50;;;11.70;;
31182;SDS011;17813;0.000;0.000;2022-12-18T11:31:22;13.23;;;11.13;;
31182;SDS011;17813;0.000;0.000;2022-12-18T11:34:01;14.10;;;11.67;;
31182;SDS011;17813;0.000;0.000;2022-12-18T11:36:41;12.00;;;10.40;;
31182;SDS011;17813;0.000;0.000;2022-12-18T11:41:57;11.83;;;9.63;;
31182;SDS011;17813;0.000;0.000;2022-12-18T11:44:57;12.63;;;9.73;;
31182;SDS011;17813;0.000;0.000;2022-12-18T11:50:25;14.57;;;11.53;;
31182;SDS011;17813;0.000;0.000;2022-12-18T11:52:55;13.47;;;10.17;;
31182;SDS011;17813;0.000;0.000;2022-12-18T12:01:22;12.93;;;10.80;;
31182;SDS011;17813;0.000;0.000;2022-12-18T12:04:22;14.20;;;11.27;;
31182;SDS011;17813;0.000;0.000;2022-12-18T12:26:45;14.83;;;11.57;;
31182;SDS011;17813;0.000;0.000;2022-12-18T12:29:43;17.20;;;11.90;;
31182;SDS011;17813;0.000;0.000;2022-12-18T12:38:05;15.03;;;11.43;;
31182;SDS011;17813;0.000;0.000;2022-12-18T12:40:45;16.03;;;11.73;;
31182;SDS011;17813;0.000;0.000;2022-12-18T12:43:37;17.17;;;12.00;;
31182;SDS011;17813;0.000;0.000;2022-12-18T12:46:11;16.63;;;12.33;;
31182;SDS011;17813;0.000;0.000;2022-12-18T12:48:48;16.50;;;11.77;;
31182;SDS011;17813;0.000;0.000;2022-12-18T12:51:34;14.50;;;10.90;;
31182;SDS011;17813;0.000;0.000;2022-12-18T12:54:05;16.60;;;11.53;;
31182;SDS011;17813;0.000;0.000;2022-12-18T12:57:04;14.60;;;11.10;;
31182;SDS011;17813;0.000;0.000;2022-12-18T12:59:45;16.83;;;11.23;;
31182;SDS011;17813;0.000;0.000;2022-12-18T13:02:35;13.57;;;10.83;;
31182;SDS011;17813;0.000;0.000;2022-12-18T13:05:50;16.83;;;11.70;;
31182;SDS011;17813;0.000;0.000;2022-12-18T13:08:28;17.20;;;12.37;;
31182;SDS011;17813;0.000;0.000;2022-12-18T13:10:57;17.63;;;12.53;;
31182;SDS011;17813;0.000;0.000;2022-12-18T13:13:57;21.00;;;13.10;;
31182;SDS011;17813;0.000;0.000;2022-12-18T13:16:24;18.83;;;13.50;;
31182;SDS011;17813;0.000;0.000;2022-12-18T13:18:56;17.93;;;13.30;;
31182;SDS011;17813;0.000;0.000;2022-12-18T13:21:30;19.80;;;13.53;;
31182;SDS011;17813;0.000;0.000;2022-12-18T13:24:15;18.43;;;13.00;;
31182;SDS011;17813;0.000;0.000;2022-12-18T13:26:54;19.10;;;13.37;;
31182;SDS011;17813;0.000;0.000;2022-12-18T13:32:26;17.43;;;13.10;;
31182;SDS011;17813;0.000;0.000;2022-12-18T13:37:54;14.97;;;10.87;;
31182;SDS011;17813;0.000;0.000;2022-12-18T13:46:02;11.10;;;7.90;;
31182;SDS011;17813;0.000;0.000;2022-12-18T13:48:37;10.50;;;7.37;;
31182;SDS011;17813;0.000;0.000;2022-12-18T13:51:06;10.17;;;7.70;;
31182;SDS011;17813;0.000;0.000;2022-12-18T13:53:59;11.30;;;7.70;;
31182;SDS011;17813;0.000;0.000;2022-12-18T13:56:31;13.37;;;7.57;;
31182;SDS011;17813;0.000;0.000;2022-12-18T13:59:12;11.13;;;7.87;;
31182;SDS011;17813;0.000;0.000;2022-12-18T14:02:27;13.90;;;9.50;;
31182;SDS011;17813;0.000;0.000;2022-12-18T14:04:46;13.83;;;9.87;;
31182;SDS011;17813;0.000;0.000;2022-12-18T14:09:52;14.57;;;10.60;;
31182;SDS011;17813;0.000;0.000;2022-12-18T14:17:54;24.60;;;15.70;;
31182;SDS011;17813;0.000;0.000;2022-12-18T14:20:35;19.10;;;12.70;;
31182;SDS011;17813;0.000;0.000;2022-12-18T14:23:02;16.43;;;10.90;;
31182;SDS011;17813;0.000;0.000;2022-12-18T14:25:30;14.10;;;9.47;;
31182;SDS011;17813;0.000;0.000;2022-12-18T14:30:37;15.73;;;9.77;;
31182;SDS011;17813;0.000;0.000;2022-12-18T14:35:42;20.53;;;12.70;;
31182;SDS011;17813;0.000;0.000;2022-12-18T14:38:38;23.77;;;15.83;;
31182;SDS011;17813;0.000;0.000;2022-12-18T14:41:11;25.23;;;12.53;;
31182;SDS011;17813;0.000;0.000;2022-12-18T14:43:43;23.10;;;13.80;;
31182;SDS011;17813;0.000;0.000;2022-12-18T14:46:29;25.50;;;17.23;;
31182;SDS011;17813;0.000;0.000;2022-12-18T14:49:00;21.90;;;13.57;;
31182;SDS011;17813;0.000;0.000;2022-12-18T14:51:31;15.80;;;10.33;;
31182;SDS011;17813;0.000;0.000;2022-12-18T14:54:06;13.20;;;9.10;;
31182;SDS011;17813;0.000;0.000;2022-12-18T14:57:18;17.37;;;10.37;;
31182;SDS011;17813;0.000;0.000;2022-12-18T14:59:55;16.00;;;10.43;;
31182;SDS011;17813;0.000;0.000;2022-12-18T15:02:54;13.47;;;9.83;;
31182;SDS011;17813;0.000;0.000;2022-12-18T15:05:28;17.07;;;12.30;;
31182;SDS011;17813;0.000;0.000;2022-12-18T15:08:24;18.40;;;12.03;;
31182;SDS011;17813;0.000;0.000;2022-12-18T15:11:03;16.67;;;11.13;;
31182;SDS011;17813;0.000;0.000;2022-12-18T15:20:03;16.90;;;11.33;;
31182;SDS011;17813;0.000;0.000;2022-12-18T15:22:41;16.13;;;11.30;;
31182;SDS011;17813;0.000;0.000;2022-12-18T15:25:31;14.27;;;10.30;;
31182;SDS011;17813;0.000;0.000;2022-12-18T15:28:13;23.40;;;14.93;;
31182;SDS011;17813;0.000;0.000;2022-12-18T15:33:42;24.07;;;15.40;;
31182;SDS011;17813;0.000;0.000;2022-12-18T15:36:22;17.93;;;10.97;;
31182;SDS011;17813;0.000;0.000;2022-12-18T15:38:50;19.07;;;11.87;;
31182;SDS011;17813;0.000;0.000;2022-12-18T15:41:41;19.67;;;12.30;;
31182;SDS011;17813;0.000;0.000;2022-12-18T15:44:31;25.00;;;15.03;;
31182;SDS011;17813;0.000;0.000;2022-12-18T15:47:15;22.13;;;14.27;;
31182;SDS011;17813;0.000;0.000;2022-12-18T15:49:44;18.17;;;12.00;;
31182;SDS011;17813;0.000;0.000;2022-12-18T15:52:12;16.90;;;11.40;;
31182;SDS011;17813;0.000;0.000;2022-12-18T15:54:53;21.53;;;13.30;;
31182;SDS011;17813;0.000;0.000;2022-12-18T15:57:39;17.33;;;11.93;;
31182;SDS011;17813;0.000;0.000;2022-12-18T16:00:11;19.70;;;12.93;;
31182;SDS011;17813;0.000;0.000;2022-12-18T16:02:39;19.50;;;12.30;;
31182;SDS011;17813;0.000;0.000;2022-12-18T16:05:16;20.70;;;13.90;;
31182;SDS011;17813;0.000;0.000;2022-12-18T16:07:50;20.63;;;13.60;;
31182;SDS011;17813;0.000;0.000;2022-12-18T16:10:18;18.53;;;12.50;;
31182;SDS011;17813;0.000;0.000;2022-12-18T16:12:46;18.80;;;12.10;;
31182;SDS011;17813;0.000;0.000;2022-12-18T16:15:14;19.40;;;13.07;;
31182;SDS011;17813;0.000;0.000;2022-12-18T16:17:43;20.23;;;13.50;;
31182;SDS011;17813;0.000;0.000;2022-12-18T16:20:22;25.30;;;14.60;;
31182;SDS011;17813;0.000;0.000;2022-12-18T16:22:56;24.27;;;14.90;;
31182;SDS011;17813;0.000;0.000;2022-12-18T16:25:25;21.57;;;13.67;;
31182;SDS011;17813;0.000;0.000;2022-12-18T16:28:02;21.23;;;14.27;;
31182;SDS011;17813;0.000;0.000;2022-12-18T16:30:36;27.03;;;15.33;;
31182;SDS011;17813;0.000;0.000;2022-12-18T16:33:15;21.20;;;14.37;;
31182;SDS011;17813;0.000;0.000;2022-12-18T16:35:43;18.37;;;12.30;;
31182;SDS011;17813;0.000;0.000;2022-12-18T16:38:20;21.20;;;12.23;;
31182;SDS011;17813;0.000;0.000;2022-12-18T16:40:51;18.43;;;11.87;;
31182;SDS011;17813;0.000;0.000;2022-12-18T16:43:37;18.27;;;10.93;;
31182;SDS011;17813;0.000;0.000;2022-12-18T16:46:08;16.93;;;11.17;;
31182;SDS011;17813;0.000;0.000;2022-12-18T16:48:35;16.03;;;11.10;;
31182;SDS011;17813;0.000;0.000;2022-12-18T16:51:03;18.63;;;12.03;;
31182;SDS011;17813;0.000;0.000;2022-12-18T16:53:39;16.00;;;11.00;;
31182;SDS011;17813;0.000;0.000;2022-12-18T16:56:09;17.70;;;12.30;;
31182;SDS011;17813;0.000;0.000;2022-12-18T16:58:42;18.47;;;12.90;;
31182;SDS011;17813;0.000;0.000;2022-12-18T17:01:23;16.77;;;12.00;;
31182;SDS011;17813;0.000;0.000;2022-12-18T17:03:55;16.17;;;11.70;;
31182;SDS011;17813;0.000;0.000;2022-12-18T17:06:39;19.00;;;12.00;;
31182;SDS011;17813;0.000;0.000;2022-12-18T17:09:12;19.40;;;11.37;;
31182;SDS011;17813;0.000;0.000;2022-12-18T17:11:44;14.07;;;10.07;;
31182;SDS011;17813;0.000;0.000;2022-12-18T17:14:12;14.97;;;10.37;;
31182;SDS011;17813;0.000;0.000;2022-12-18T17:16:51;14.20;;;10.03;;
31182;SDS011;17813;0.000;0.000;2022-12-18T17:19:24;14.77;;;9.50;;